Home > Products > Valid Products > TAF

000
FTUS43 KFSD 281027 AAA
TAFFSD
TAF AMD
KFSD 281027Z 2810/2906 12008KT P6SM OVC035
     FM281600 16014KT P6SM SCT030
     FM281900 17018G26KT P6SM SCT200
     FM290300 17022G29KT P6SM SCT100=



000
FTUS43 KFSD 280523
TAFSUX
TAF
KSUX 280523Z 2806/2906 11008KT P6SM BKN040
     FM281700 16014G21KT P6SM SCT040
     FM282100 17017G24KT P6SM SKC
     FM290300 17021G28KT P6SM SKC=



000
FTUS43 KFSD 280523
TAFFSD
TAF
KFSD 280523Z 2806/2906 12008KT P6SM OVC035
     FM280800 12009KT P6SM OVC030
     FM281600 16014KT P6SM SCT030
     FM281900 17018G26KT P6SM SCT200
     FM290300 17022G29KT P6SM SCT100=



000
FTUS43 KFSD 280523
TAFHON
TAF
KHON 280523Z 2806/2906 14007KT P6SM BKN025
      TEMPO 2806/2808 BKN035
     FM281500 15014G21KT P6SM SCT200
     FM281900 16018G25KT P6SM SCT150
     FM290400 17012KT P6SM SCT120=



000
FTUS43 KFSD 280523
TAFSUX
TAF
KSUX 280523Z 2806/2906 11008KT P6SM BKN040
     FM281700 16014G21KT P6SM SCT040
     FM282100 17017G24KT P6SM SKC
     FM290300 17021G28KT P6SM SKC=



000
FTUS43 KFSD 280523
TAFHON
TAF
KHON 280523Z 2806/2906 14007KT P6SM BKN025
      TEMPO 2806/2808 BKN035
     FM281500 15014G21KT P6SM SCT200
     FM281900 16018G25KT P6SM SCT150
     FM290400 17012KT P6SM SCT120=



000
FTUS43 KFSD 280523
TAFSUX
TAF
KSUX 280523Z 2806/2906 11008KT P6SM BKN040
     FM281700 16014G21KT P6SM SCT040
     FM282100 17017G24KT P6SM SKC
     FM290300 17021G28KT P6SM SKC=



000
FTUS43 KFSD 280523
TAFFSD
TAF
KFSD 280523Z 2806/2906 12008KT P6SM OVC035
     FM280800 12009KT P6SM OVC030
     FM281600 16014KT P6SM SCT030
     FM281900 17018G26KT P6SM SCT200
     FM290300 17022G29KT P6SM SCT100=



000
FTUS43 KFSD 280523
TAFSUX
TAF
KSUX 280523Z 2806/2906 11008KT P6SM BKN040
     FM281700 16014G21KT P6SM SCT040
     FM282100 17017G24KT P6SM SKC
     FM290300 17021G28KT P6SM SKC=



000
FTUS43 KFSD 280041 AAA
TAFSUX
TAF AMD
KSUX 280041Z 2801/2824 13008KT 6SM -SN OVC040
      TEMPO 2801/2803 4SM -SN OVC025
     FM280500 12008KT P6SM OVC040
     FM281700 16014G21KT P6SM SCT040
     FM282100 17017G24KT P6SM SKC=



000
FTUS43 KFSD 280041 AAA
TAFSUX
TAF AMD
KSUX 280041Z 2801/2824 13008KT 6SM -SN OVC040
      TEMPO 2801/2803 4SM -SN OVC025
     FM280500 12008KT P6SM OVC040
     FM281700 16014G21KT P6SM SCT040
     FM282100 17017G24KT P6SM SKC=



000
FTUS43 KFSD 280039 AAA
TAFFSD
TAF AMD
KFSD 280039Z 2801/2824 16009KT P6SM OVC060
      TEMPO 2801/2802 5SM -SN OVC025
     FM280400 12007KT P6SM OVC030
     FM281600 16014KT P6SM SCT030
     FM281900 16018G26KT P6SM SCT200=



000
FTUS43 KFSD 272320
TAFHON
TAF
KHON 272320Z 2800/2824 13009KT P6SM SCT010 OVC040
     FM281500 15014G21KT P6SM SCT200
     FM281800 16017G25KT P6SM SCT200=



000
FTUS43 KFSD 272320
TAFSUX
TAF
KSUX 272320Z 2800/2824 17008KT P6SM OVC070
     FM280100 13008KT 4SM -SN OVC040
      TEMPO 2802/2804 1SM -SN OVC025
     FM280500 12008KT P6SM OVC040
     FM281700 16014G21KT P6SM SCT040
     FM282100 17017G24KT P6SM SKC=



000
FTUS43 KFSD 272320
TAFFSD
TAF
KFSD 272320Z 2800/2824 16009KT 4SM -SN OVC060
      TEMPO 2800/2803 2SM -SN OVC025
     FM280400 12007KT P6SM OVC030
     FM281600 16014KT P6SM SCT030
     FM281900 16018G26KT P6SM SCT200=



000
FTUS43 KFSD 272320
TAFFSD
TAF
KFSD 272320Z 2800/2824 16009KT 4SM -SN OVC060
      TEMPO 2800/2803 2SM -SN OVC025
     FM280400 12007KT P6SM OVC030
     FM281600 16014KT P6SM SCT030
     FM281900 16018G26KT P6SM SCT200=



000
FTUS43 KFSD 272320
TAFSUX
TAF
KSUX 272320Z 2800/2824 17008KT P6SM OVC070
     FM280100 13008KT 4SM -SN OVC040
      TEMPO 2802/2804 1SM -SN OVC025
     FM280500 12008KT P6SM OVC040
     FM281700 16014G21KT P6SM SCT040
     FM282100 17017G24KT P6SM SKC=



000
FTUS43 KFSD 272320
TAFHON
TAF
KHON 272320Z 2800/2824 13009KT P6SM SCT010 OVC040
     FM281500 15014G21KT P6SM SCT200
     FM281800 16017G25KT P6SM SCT200=



000
FTUS43 KFSD 272320
TAFSUX
TAF
KSUX 272320Z 2800/2824 17008KT P6SM OVC070
     FM280100 13008KT 4SM -SN OVC040
      TEMPO 2802/2804 1SM -SN OVC025
     FM280500 12008KT P6SM OVC040
     FM281700 16014G21KT P6SM SCT040
     FM282100 17017G24KT P6SM SKC=



000
FTUS43 KFSD 271916 AAC
TAFFSD
TAF AMD
KFSD 271916Z 2719/2818 18010KT P6SM OVC060
     FM272300 15010KT 3SM -SN OVC030
      TEMPO 2723/2803 1SM -SN OVC015
     FM280500 12008KT P6SM OVC025
     FM281500 15014KT P6SM BKN040=



000
FTUS43 KFSD 271916 AAC
TAFFSD
TAF AMD
KFSD 271916Z 2719/2818 18010KT P6SM OVC060
     FM272300 15010KT 3SM -SN OVC030
      TEMPO 2723/2803 1SM -SN OVC015
     FM280500 12008KT P6SM OVC025
     FM281500 15014KT P6SM BKN040=



000
FTUS43 KFSD 271859 AAB
TAFHON
TAF AMD
KHON 271859Z 2719/2818 16012KT 2SM -SN OVC030
      TEMPO 2719/2723 3/4SM -SN OVC015
     FM280000 13008KT 4SM -SN OVC025
     FM280300 12008KT P6SM BKN030
     FM281000 12010KT P6SM BKN050
     FM281500 15014G20KT P6SM SCT100 BKN250=



000
FTUS43 KFSD 271848 AAA
TAFHON
TAF AMD
KHON 271848Z 2719/2818 16012KT 4SM -SN OVC040
     FM272000 16012KT 2SM -SN OVC030
      TEMPO 2721/2723 3/4SM -SN OVC015
     FM280000 13008KT 4SM -SN OVC025
     FM280300 12008KT P6SM BKN030
     FM281000 12010KT P6SM BKN050
     FM281500 15014G20KT P6SM SCT100 BKN250=



000
FTUS43 KFSD 271848 AAA
TAFHON
TAF AMD
KHON 271848Z 2719/2818 16012KT 4SM -SN OVC040
     FM272000 16012KT 2SM -SN OVC030
      TEMPO 2721/2723 3/4SM -SN OVC015
     FM280000 13008KT 4SM -SN OVC025
     FM280300 12008KT P6SM BKN030
     FM281000 12010KT P6SM BKN050
     FM281500 15014G20KT P6SM SCT100 BKN250=



000
FTUS43 KFSD 271740
TAFFSD
TAF
KFSD 271740Z 2718/2818 18010KT P6SM BKN100
     FM272100 17012KT P6SM OVC060
     FM280000 15010KT 3SM -SN OVC030
      TEMPO 2800/2804 1SM -SN OVC015
     FM280500 12008KT P6SM OVC025
     FM281500 15014KT P6SM BKN040=



000
FTUS43 KFSD 271740
TAFSUX
TAF
KSUX 271740Z 2718/2818 18006KT P6SM SCT120
     FM272100 17007KT P6SM OVC070
     FM280100 14008KT 4SM -SN OVC030
      TEMPO 2802/2806 1SM -SN OVC015
     FM280800 10008KT P6SM OVC030
     FM281600 14012KT P6SM BKN040=



000
FTUS43 KFSD 271740
TAFSUX
TAF
KSUX 271740Z 2718/2818 18006KT P6SM SCT120
     FM272100 17007KT P6SM OVC070
     FM280100 14008KT 4SM -SN OVC030
      TEMPO 2802/2806 1SM -SN OVC015
     FM280800 10008KT P6SM OVC030
     FM281600 14012KT P6SM BKN040=



000
FTUS43 KFSD 271740
TAFSUX
TAF
KSUX 271740Z 2718/2818 18006KT P6SM SCT120
     FM272100 17007KT P6SM OVC070
     FM280100 14008KT 4SM -SN OVC030
      TEMPO 2802/2806 1SM -SN OVC015
     FM280800 10008KT P6SM OVC030
     FM281600 14012KT P6SM BKN040=



000
FTUS43 KFSD 271740
TAFFSD
TAF
KFSD 271740Z 2718/2818 18010KT P6SM BKN100
     FM272100 17012KT P6SM OVC060
     FM280000 15010KT 3SM -SN OVC030
      TEMPO 2800/2804 1SM -SN OVC015
     FM280500 12008KT P6SM OVC025
     FM281500 15014KT P6SM BKN040=



000
FTUS43 KFSD 271740
TAFHON
TAF
KHON 271740Z 2718/2818 16012KT P6SM SCT040 OVC080
     FM272000 16012KT 2SM -SN OVC030
      TEMPO 2721/2723 3/4SM -SN OVC015
     FM280000 13008KT 4SM -SN OVC025
     FM280300 12008KT P6SM BKN030
     FM281000 12010KT P6SM BKN050
     FM281500 15014G20KT P6SM SCT100 BKN250=



000
FTUS43 KFSD 271740
TAFHON
TAF
KHON 271740Z 2718/2818 16012KT P6SM SCT040 OVC080
     FM272000 16012KT 2SM -SN OVC030
      TEMPO 2721/2723 3/4SM -SN OVC015
     FM280000 13008KT 4SM -SN OVC025
     FM280300 12008KT P6SM BKN030
     FM281000 12010KT P6SM BKN050
     FM281500 15014G20KT P6SM SCT100 BKN250=



000
FTUS43 KFSD 271740
TAFSUX
TAF
KSUX 271740Z 2718/2818 18006KT P6SM SCT120
     FM272100 17007KT P6SM OVC070
     FM280100 14008KT 4SM -SN OVC030
      TEMPO 2802/2806 1SM -SN OVC015
     FM280800 10008KT P6SM OVC030
     FM281600 14012KT P6SM BKN040=



000
FTUS43 KFSD 271131
TAFHON
TAF
KHON 271131Z 2712/2812 VRB04KT P6SM BKN150
     FM271500 16010KT P6SM BKN090
     FM272000 16012KT P6SM BKN035 PROB30 2721/2723 6SM -SN SCT025
      OVC035
     FM280300 12008KT P6SM SCT025 BKN040=



000
FTUS43 KFSD 271131
TAFFSD
TAF
KFSD 271131Z 2712/2812 VRB03KT P6SM SCT200
     FM271600 17006KT P6SM BKN120
     FM272100 17011KT P6SM OVC060
     FM280100 14010KT 6SM -SN SCT020 OVC035 PROB30 2801/2803 4SM -SN
      BR BKN020
     FM280500 12008KT P6SM SCT015 BKN040=



000
FTUS43 KFSD 271131
TAFSUX
TAF
KSUX 271131Z 2712/2812 VRB04KT P6SM SCT200
     FM272100 17007KT P6SM OVC090
     FM280200 14008KT P6SM -SN SCT025 OVC040
     FM280600 12009KT P6SM SCT025 OVC050=



000
FTUS43 KFSD 271131
TAFFSD
TAF
KFSD 271131Z 2712/2812 VRB03KT P6SM SCT200
     FM271600 17006KT P6SM BKN120
     FM272100 17011KT P6SM OVC060
     FM280100 14010KT 6SM -SN SCT020 OVC035 PROB30 2801/2803 4SM -SN
      BR BKN020
     FM280500 12008KT P6SM SCT015 BKN040=



000
FTUS43 KFSD 271131
TAFSUX
TAF
KSUX 271131Z 2712/2812 VRB04KT P6SM SCT200
     FM272100 17007KT P6SM OVC090
     FM280200 14008KT P6SM -SN SCT025 OVC040
     FM280600 12009KT P6SM SCT025 OVC050=



000
FTUS43 KFSD 271131
TAFSUX
TAF
KSUX 271131Z 2712/2812 VRB04KT P6SM SCT200
     FM272100 17007KT P6SM OVC090
     FM280200 14008KT P6SM -SN SCT025 OVC040
     FM280600 12009KT P6SM SCT025 OVC050=



000
FTUS43 KFSD 271131
TAFHON
TAF
KHON 271131Z 2712/2812 VRB04KT P6SM BKN150
     FM271500 16010KT P6SM BKN090
     FM272000 16012KT P6SM BKN035 PROB30 2721/2723 6SM -SN SCT025
      OVC035
     FM280300 12008KT P6SM SCT025 BKN040=



000
FTUS43 KFSD 270522
TAFFSD
TAF
KFSD 270522Z 2706/2806 VRB04KT P6SM SKC
     FM271600 17006KT P6SM BKN120
     FM272100 17010KT P6SM OVC060
     FM280200 14010KT 6SM -SN SCT025 OVC035=



000
FTUS43 KFSD 270522
TAFSUX
TAF
KSUX 270522Z 2706/2806 VRB04KT P6SM SCT050
     FM272100 18007KT P6SM OVC060
     FM280200 14008KT 6SM -SN SCT025 OVC035=



000
FTUS43 KFSD 270522
TAFSUX
TAF
KSUX 270522Z 2706/2806 VRB04KT P6SM SCT050
     FM272100 18007KT P6SM OVC060
     FM280200 14008KT 6SM -SN SCT025 OVC035=



000
FTUS43 KFSD 270522
TAFHON
TAF
KHON 270522Z 2706/2806 VRB04KT P6SM BKN200
     FM271500 16010KT P6SM BKN090
     FM272100 16011KT P6SM OVC035
     FM280300 13008KT P6SM BKN035=



000
FTUS43 KFSD 270522
TAFHON
TAF
KHON 270522Z 2706/2806 VRB04KT P6SM BKN200
     FM271500 16010KT P6SM BKN090
     FM272100 16011KT P6SM OVC035
     FM280300 13008KT P6SM BKN035=



000
FTUS43 KFSD 270522
TAFSUX
TAF
KSUX 270522Z 2706/2806 VRB04KT P6SM SCT050
     FM272100 18007KT P6SM OVC060
     FM280200 14008KT 6SM -SN SCT025 OVC035=



000
FTUS43 KFSD 270522
TAFFSD
TAF
KFSD 270522Z 2706/2806 VRB04KT P6SM SKC
     FM271600 17006KT P6SM BKN120
     FM272100 17010KT P6SM OVC060
     FM280200 14010KT 6SM -SN SCT025 OVC035=



000
FTUS43 KFSD 262330
TAFSUX
TAF
KSUX 262330Z 2700/2724 34009KT P6SM SCT025 BKN040
     FM270900 VRB04KT P6SM SCT200
     FM272100 19007KT P6SM OVC060=



000
FTUS43 KFSD 262330
TAFHON
TAF
KHON 262330Z 2700/2724 01009KT P6SM SCT040
     FM270300 VRB04KT P6SM BKN200
     FM271500 16009KT P6SM BKN090
     FM272100 16011KT P6SM OVC025=



000
FTUS43 KFSD 262330
TAFFSD
TAF
KFSD 262330Z 2700/2724 36008KT P6SM BKN050
     FM270900 VRB04KT P6SM BKN200
     FM272100 17008KT P6SM OVC060=



000
FTUS43 KFSD 262330
TAFSUX
TAF
KSUX 262330Z 2700/2724 34009KT P6SM SCT025 BKN040
     FM270900 VRB04KT P6SM SCT200
     FM272100 19007KT P6SM OVC060=



000
FTUS43 KFSD 261733
TAFSUX
TAF
KSUX 261733Z 2618/2718 34010KT P6SM SCT040
     FM262100 34012KT P6SM BKN040
     FM270300 02006KT P6SM SCT040
     FM271300 VRB03KT P6SM SCT050 BKN120=



000
FTUS43 KFSD 261733
TAFFSD
TAF
KFSD 261733Z 2618/2718 33010KT P6SM BKN035
     FM262100 34014KT P6SM BKN040
     FM270200 02007KT P6SM SCT040
     FM271200 VRB03KT P6SM SCT050 BKN120
     FM271600 14005KT P6SM BKN050=



000
FTUS43 KFSD 261733
TAFSUX
TAF
KSUX 261733Z 2618/2718 34010KT P6SM SCT040
     FM262100 34012KT P6SM BKN040
     FM270300 02006KT P6SM SCT040
     FM271300 VRB03KT P6SM SCT050 BKN120=



000
FTUS43 KFSD 261733
TAFHON
TAF
KHON 261733Z 2618/2718 01008KT P6SM SCT025 BKN050
     FM262100 36012KT P6SM BKN050
     FM270300 VRB03KT P6SM BKN050
     FM271100 13007KT P6SM BKN035
     FM271600 15012KT P6SM OVC025=



000
FTUS43 KFSD 261733
TAFSUX
TAF
KSUX 261733Z 2618/2718 34010KT P6SM SCT040
     FM262100 34012KT P6SM BKN040
     FM270300 02006KT P6SM SCT040
     FM271300 VRB03KT P6SM SCT050 BKN120=



000
FTUS43 KFSD 261733
TAFSUX
TAF
KSUX 261733Z 2618/2718 34010KT P6SM SCT040
     FM262100 34012KT P6SM BKN040
     FM270300 02006KT P6SM SCT040
     FM271300 VRB03KT P6SM SCT050 BKN120=



000
FTUS43 KFSD 261733
TAFFSD
TAF
KFSD 261733Z 2618/2718 33010KT P6SM BKN035
     FM262100 34014KT P6SM BKN040
     FM270200 02007KT P6SM SCT040
     FM271200 VRB03KT P6SM SCT050 BKN120
     FM271600 14005KT P6SM BKN050=



000
FTUS43 KFSD 261733
TAFHON
TAF
KHON 261733Z 2618/2718 01008KT P6SM SCT025 BKN050
     FM262100 36012KT P6SM BKN050
     FM270300 VRB03KT P6SM BKN050
     FM271100 13007KT P6SM BKN035
     FM271600 15012KT P6SM OVC025=



000
FTUS43 KFSD 261126
TAFSUX
TAF
KSUX 261126Z 2612/2712 30006KT P6SM SKC
     FM261600 32007KT P6SM SCT040 BKN150
     FM262100 33008KT P6SM BKN040
     FM270500 02008KT P6SM SCT040=



000
FTUS43 KFSD 261126
TAFSUX
TAF
KSUX 261126Z 2612/2712 30006KT P6SM SKC
     FM261600 32007KT P6SM SCT040 BKN150
     FM262100 33008KT P6SM BKN040
     FM270500 02008KT P6SM SCT040=



000
FTUS43 KFSD 261126
TAFHON
TAF
KHON 261126Z 2612/2712 32006KT P6SM BKN150
     FM261700 35007KT P6SM BKN040
     FM262100 36012KT P6SM BKN050
     FM270200 VRB05KT P6SM BKN200=



000
FTUS43 KFSD 261126
TAFFSD
TAF
KFSD 261126Z 2612/2712 29006KT P6SM SCT040
     FM261400 32007KT P6SM SCT040 BKN150
     FM262100 34012KT P6SM BKN040
     FM270200 02008KT P6SM SCT040=



000
FTUS43 KFSD 261126
TAFFSD
TAF
KFSD 261126Z 2612/2712 29006KT P6SM SCT040
     FM261400 32007KT P6SM SCT040 BKN150
     FM262100 34012KT P6SM BKN040
     FM270200 02008KT P6SM SCT040=



000
FTUS43 KFSD 261126
TAFHON
TAF
KHON 261126Z 2612/2712 32006KT P6SM BKN150
     FM261700 35007KT P6SM BKN040
     FM262100 36012KT P6SM BKN050
     FM270200 VRB05KT P6SM BKN200=



000
FTUS43 KFSD 261126
TAFSUX
TAF
KSUX 261126Z 2612/2712 30006KT P6SM SKC
     FM261600 32007KT P6SM SCT040 BKN150
     FM262100 33008KT P6SM BKN040
     FM270500 02008KT P6SM SCT040=



000
FTUS43 KFSD 261126
TAFSUX
TAF
KSUX 261126Z 2612/2712 30006KT P6SM SKC
     FM261600 32007KT P6SM SCT040 BKN150
     FM262100 33008KT P6SM BKN040
     FM270500 02008KT P6SM SCT040=



000
FTUS43 KFSD 260526
TAFSUX
TAF
KSUX 260526Z 2606/2706 33006KT P6SM SKC
     FM261700 33008KT P6SM BKN040=



000
FTUS43 KFSD 260526
TAFHON
TAF
KHON 260526Z 2606/2706 32006KT P6SM FEW050
     FM261700 35007KT P6SM BKN040
     FM262100 36012KT P6SM BKN050
     FM270200 03008KT P6SM SCT050=



000
FTUS43 KFSD 260526
TAFFSD
TAF
KFSD 260526Z 2606/2706 32005KT P6SM SCT040
     FM261000 32006KT P6SM BKN040
     FM262100 34012KT P6SM BKN040
     FM270200 01008KT P6SM SCT040=



000
FTUS43 KFSD 260526
TAFFSD
TAF
KFSD 260526Z 2606/2706 32005KT P6SM SCT040
     FM261000 32006KT P6SM BKN040
     FM262100 34012KT P6SM BKN040
     FM270200 01008KT P6SM SCT040=



000
FTUS43 KFSD 260526
TAFHON
TAF
KHON 260526Z 2606/2706 32006KT P6SM FEW050
     FM261700 35007KT P6SM BKN040
     FM262100 36012KT P6SM BKN050
     FM270200 03008KT P6SM SCT050=



000
FTUS43 KFSD 260526
TAFSUX
TAF
KSUX 260526Z 2606/2706 33006KT P6SM SKC
     FM261700 33008KT P6SM BKN040=



000
FTUS43 KFSD 260526
TAFSUX
TAF
KSUX 260526Z 2606/2706 33006KT P6SM SKC
     FM261700 33008KT P6SM BKN040=



000
FTUS43 KFSD 260526
TAFSUX
TAF
KSUX 260526Z 2606/2706 33006KT P6SM SKC
     FM261700 33008KT P6SM BKN040=



000
FTUS43 KFSD 252333
TAFSUX
TAF
KSUX 252333Z 2600/2624 33014KT P6SM SCT200
     FM260100 33008KT P6SM SCT200
     FM260800 34006KT P6SM SKC
     FM261600 32007KT P6SM SCT025
     FM262100 34009KT P6SM BKN040=



000
FTUS43 KFSD 252333
TAFHON
TAF
KHON 252333Z 2600/2624 33015G22KT P6SM SKC
     FM260100 33010KT P6SM SKC
     FM260700 31004KT P6SM BKN150
     FM261700 35007KT P6SM BKN040=



000
FTUS43 KFSD 252333
TAFSUX
TAF
KSUX 252333Z 2600/2624 33014KT P6SM SCT200
     FM260100 33008KT P6SM SCT200
     FM260800 34006KT P6SM SKC
     FM261600 32007KT P6SM SCT025
     FM262100 34009KT P6SM BKN040=



000
FTUS43 KFSD 252333
TAFFSD
TAF
KFSD 252333Z 2600/2624 33016KT P6SM FEW050
     FM260200 33008KT P6SM FEW050
     FM261500 34007KT P6SM SCT025 BKN150
     FM261800 34010KT P6SM BKN040=



000
FTUS43 KFSD 252024 AAA
TAFHON
TAF AMD
KHON 252024Z 2520/2618 32022G32KT P6SM SCT050
     FM252300 32018G25KT P6SM SCT050
     FM260100 33010KT P6SM SCT040
     FM261000 36004KT P6SM SCT100
     FM261600 35006KT P6SM SCT050 BKN100=



000
FTUS43 KFSD 252024 AAA
TAFHON
TAF AMD
KHON 252024Z 2520/2618 32022G32KT P6SM SCT050
     FM252300 32018G25KT P6SM SCT050
     FM260100 33010KT P6SM SCT040
     FM261000 36004KT P6SM SCT100
     FM261600 35006KT P6SM SCT050 BKN100=



000
FTUS43 KFSD 252023 AAA
TAFSUX
TAF AMD
KSUX 252023Z 2520/2618 33015G24KT P6SM BKN035
     FM260000 33012KT P6SM SKC
     FM260800 34006KT P6SM SKC
     FM261600 34010KT P6SM SCT120=



000
FTUS43 KFSD 252023 AAA
TAFSUX
TAF AMD
KSUX 252023Z 2520/2618 33015G24KT P6SM BKN035
     FM260000 33012KT P6SM SKC
     FM260800 34006KT P6SM SKC
     FM261600 34010KT P6SM SCT120=



000
FTUS43 KFSD 252022 AAA
TAFFSD
TAF AMD
KFSD 252022Z 2520/2618 32022G32KT P6SM BKN035
     FM252300 32018G25KT P6SM BKN035
     FM260200 32010KT P6SM SCT035
     FM261100 34006KT P6SM SKC
     FM261600 34010KT P6SM SCT100 BKN200=



000
FTUS43 KFSD 251734
TAFSUX
TAF
KSUX 251734Z 2518/2618 32020G30KT P6SM BKN030
     FM252200 33020G28KT P6SM SCT035
     FM260100 33012KT P6SM SKC
     FM260800 34006KT P6SM SKC
     FM261600 34010KT P6SM SCT120=



000
FTUS43 KFSD 251734
TAFSUX
TAF
KSUX 251734Z 2518/2618 32020G30KT P6SM BKN030
     FM252200 33020G28KT P6SM SCT035
     FM260100 33012KT P6SM SKC
     FM260800 34006KT P6SM SKC
     FM261600 34010KT P6SM SCT120=



000
FTUS43 KFSD 251734
TAFFSD
TAF
KFSD 251734Z 2518/2618 32022G32KT P6SM OVC030
     FM252300 32018G25KT P6SM BKN035
     FM260200 32010KT P6SM SCT035
     FM261100 34006KT P6SM SKC
     FM261600 34010KT P6SM SCT100 BKN200=



000
FTUS43 KFSD 251734
TAFHON
TAF
KHON 251734Z 2518/2618 32022G32KT P6SM OVC030
     FM252300 32018G25KT P6SM BKN035
     FM260100 33010KT P6SM SCT040
     FM261000 36004KT P6SM SCT100
     FM261600 35006KT P6SM SCT050 BKN100=



000
FTUS43 KFSD 251242 AAB
TAFFSD
TAF AMD
KFSD 251242Z 2513/2612 31018G25KT P6SM SCT025
     FM251500 32022G32KT P6SM BKN025
     FM251800 33020G28KT P6SM BKN035
     FM252200 33015G21KT P6SM SCT040
     FM260100 34010KT P6SM SKC=



000
FTUS43 KFSD 251242 AAB
TAFFSD
TAF AMD
KFSD 251242Z 2513/2612 31018G25KT P6SM SCT025
     FM251500 32022G32KT P6SM BKN025
     FM251800 33020G28KT P6SM BKN035
     FM252200 33015G21KT P6SM SCT040
     FM260100 34010KT P6SM SKC=



000
FTUS43 KFSD 251130 AAA
TAFSUX
TAF AMD
KSUX 251130Z 2512/2612 32012KT P6SM SCT005
      TEMPO 2512/2513 5SM BR OVC005
     FM251400 33017G25KT P6SM BKN025
     FM252000 33017G25KT P6SM BKN035
     FM260000 34010KT P6SM SCT040=



000
FTUS43 KFSD 251130 AAA
TAFSUX
TAF AMD
KSUX 251130Z 2512/2612 32012KT P6SM SCT005
      TEMPO 2512/2513 5SM BR OVC005
     FM251400 33017G25KT P6SM BKN025
     FM252000 33017G25KT P6SM BKN035
     FM260000 34010KT P6SM SCT040=



000
FTUS43 KFSD 251130 AAA
TAFSUX
TAF AMD
KSUX 251130Z 2512/2612 32012KT P6SM SCT005
      TEMPO 2512/2513 5SM BR OVC005
     FM251400 33017G25KT P6SM BKN025
     FM252000 33017G25KT P6SM BKN035
     FM260000 34010KT P6SM SCT040=



000
FTUS43 KFSD 251127
TAFSUX
TAF
KSUX 251127Z 2512/2612 32012KT P6SM SCT015
     FM251400 33017G25KT P6SM BKN025
     FM252000 33017G25KT P6SM BKN035
     FM260000 34010KT P6SM SCT040=



000
FTUS43 KFSD 251127
TAFFSD
TAF
KFSD 251127Z 2512/2612 31013G18KT P6SM BKN025
     FM251230 32020G30KT P6SM BKN025
     FM251800 33020G28KT P6SM BKN035
     FM252200 33015G21KT P6SM SCT040
     FM260100 34010KT P6SM SKC=



000
FTUS43 KFSD 251127
TAFSUX
TAF
KSUX 251127Z 2512/2612 32012KT P6SM SCT015
     FM251400 33017G25KT P6SM BKN025
     FM252000 33017G25KT P6SM BKN035
     FM260000 34010KT P6SM SCT040=



000
FTUS43 KFSD 251127
TAFHON
TAF
KHON 251127Z 2512/2612 32020G30KT P6SM OVC030
     FM251700 33026G36KT P6SM BKN040
     FM252200 33016G25KT P6SM SCT040
     FM260100 34009KT P6SM SKC=



    US Dept of Commerce
    National Oceanic and Atmospheric Administration
    National Weather Service
    1325 East West Highway
    Silver Spring, MD 20910
    Page Author: NWS Internet Services Team
Disclaimer
Information Quality
Credits
Glossary
Privacy Policy
Freedom of Information Act (FOIA)
About Us
Career Opportunities